Terminal Aerodrome Forecast
Issued by NWS

Home | Current Version | Previous Version | Text Only | Print | Product List | Glossary On
Versions: 1 2 3 4 5 6 7 8 9 10 11 12
000
FTUS46 KMTR 031129
TAFSJC
TAF
KSJC 031129Z 0312/0412 14003KT P6SM SKC
     FM031700 VRB03KT P6SM SKC
     FM032100 31015G20KT P6SM FEW200
     FM040500 32005KT P6SM FEW200
     FM040700 13003KT P6SM FEW200=

USA.gov is the U.S. government's official web portal to all federal, state and local government web resources and services.